createdAt,value
2019-02-19T00:01:33.707Z,6.70
2019-02-19T00:04:16.387Z,6.80
2019-02-19T00:06:57.379Z,6.80
2019-02-19T00:09:38.690Z,6.80
2019-02-19T00:12:21.504Z,6.80
2019-02-19T00:15:08.201Z,6.80
2019-02-19T00:17:51.099Z,6.70
2019-02-19T00:20:36.403Z,6.70
2019-02-19T00:23:19.558Z,6.70
2019-02-19T00:26:02.486Z,6.60
2019-02-19T00:28:45.678Z,6.60
2019-02-19T00:31:26.951Z,6.60
2019-02-19T00:34:08.749Z,6.80
2019-02-19T00:36:52.196Z,6.80
2019-02-19T00:39:33.081Z,6.80
2019-02-19T00:42:15.282Z,6.90
2019-02-19T00:44:56.196Z,6.90
2019-02-19T00:47:41.351Z,7.00
2019-02-19T00:50:26.222Z,6.90
2019-02-19T00:53:07.278Z,6.90
2019-02-19T00:56:01.543Z,6.80
2019-02-19T00:58:43.386Z,6.70
2019-02-19T01:01:24.595Z,6.80
2019-02-19T01:04:11.143Z,6.70
2019-02-19T01:07:38.409Z,6.70
2019-02-19T01:09:52.947Z,6.80
2019-02-19T01:12:40.653Z,6.80
2019-02-19T01:15:25.478Z,6.90
2019-02-19T01:18:03.763Z,6.80
2019-02-19T01:20:46.868Z,6.80
2019-02-19T01:23:28.119Z,6.90
2019-02-19T01:26:09.716Z,6.90
2019-02-19T01:28:50.794Z,6.80
2019-02-19T01:31:33.075Z,6.70
2019-02-19T01:34:14.693Z,6.70
2019-02-19T01:36:56.148Z,6.60
2019-02-19T01:39:59.887Z,6.60
2019-02-19T01:42:48.365Z,6.50
2019-02-19T01:45:34.056Z,6.40
2019-02-19T01:51:18.389Z,6.30
2019-02-19T01:53:59.616Z,6.40
2019-02-19T01:56:43.542Z,6.40
2019-02-19T01:59:24.233Z,6.50
2019-02-19T02:02:06.874Z,6.30
2019-02-19T02:04:48.978Z,6.40
2019-02-19T02:07:29.924Z,6.50
2019-02-19T02:10:31.783Z,6.50
2019-02-19T02:13:13.053Z,6.50
2019-02-19T02:15:55.771Z,6.50
2019-02-19T02:18:42.325Z,6.60
2019-02-19T02:21:23.995Z,6.70
2019-02-19T02:24:07.164Z,6.60
2019-02-19T02:26:53.101Z,6.70
2019-02-19T02:29:39.059Z,6.60
2019-02-19T02:32:20.468Z,6.30
2019-02-19T02:35:04.232Z,6.10
2019-02-19T02:37:45.588Z,6.20
2019-02-19T02:40:30.436Z,6.20
2019-02-19T02:43:14.462Z,6.10
2019-02-19T02:45:57.142Z,6.10
2019-02-19T02:48:41.091Z,6.20
2019-02-19T02:51:21.786Z,6.10
2019-02-19T02:54:07.673Z,6.00
2019-02-19T02:56:50.636Z,5.90
2019-02-19T02:59:31.545Z,5.90
2019-02-19T03:02:16.588Z,6.00
2019-02-19T03:04:58.364Z,5.90
2019-02-19T03:10:32.798Z,6.00
2019-02-19T03:16:25.568Z,6.10
2019-02-19T03:19:07.103Z,6.40
2019-02-19T03:21:50.638Z,6.50
2019-02-19T03:24:34.399Z,6.50
2019-02-19T03:27:21.286Z,6.50
2019-02-19T03:30:02.147Z,6.50
2019-02-19T03:32:50.257Z,6.50
2019-02-19T03:35:39.402Z,6.50
2019-02-19T03:38:20.287Z,6.50
2019-02-19T03:44:00.177Z,6.60
2019-02-19T03:46:44.455Z,6.60
2019-02-19T03:49:25.952Z,6.50
2019-02-19T03:52:08.528Z,6.50
2019-02-19T03:54:49.559Z,6.60
2019-02-19T03:57:30.557Z,6.60
2019-02-19T04:00:12.346Z,6.60
2019-02-19T04:02:56.439Z,6.70
2019-02-19T04:05:40.734Z,6.70
2019-02-19T04:08:22.470Z,6.80
2019-02-19T04:11:03.900Z,6.80
2019-02-19T04:13:45.701Z,6.80
2019-02-19T04:16:29.755Z,6.90
2019-02-19T04:19:10.806Z,6.80
2019-02-19T04:21:54.545Z,6.80
2019-02-19T04:24:35.395Z,6.80
2019-02-19T04:27:17.445Z,6.80
2019-02-19T04:29:59.966Z,6.80
2019-02-19T04:32:41.074Z,6.90
2019-02-19T04:35:23.065Z,6.70
2019-02-19T04:38:04.670Z,6.80
2019-02-19T04:40:49.517Z,6.70
2019-02-19T04:43:31.357Z,6.70
2019-02-19T04:46:13.138Z,6.60
2019-02-19T04:48:54.706Z,6.60
2019-02-19T04:51:35.812Z,6.50
2019-02-19T04:54:19.827Z,6.50
2019-02-19T04:57:06.333Z,6.40
2019-02-19T04:59:49.927Z,6.40
2019-02-19T05:02:31.352Z,6.40
2019-02-19T05:05:00.870Z,6.40
2019-02-19T05:07:49.699Z,6.40
2019-02-19T05:10:50.833Z,6.40
2019-02-19T05:13:32.985Z,6.50
2019-02-19T05:16:17.341Z,6.40
2019-02-19T05:19:10.878Z,6.50
2019-02-19T05:21:52.991Z,6.50
2019-02-19T05:28:07.290Z,6.60
2019-02-19T05:30:49.622Z,6.80
2019-02-19T05:33:32.096Z,6.70
2019-02-19T05:36:13.726Z,6.80
2019-02-19T05:38:59.006Z,6.70
2019-02-19T05:41:43.711Z,6.80
2019-02-19T05:44:28.102Z,6.70
2019-02-19T05:47:15.153Z,6.70
2019-02-19T05:49:56.973Z,6.60
2019-02-19T05:52:38.445Z,6.60
2019-02-19T05:55:20.227Z,6.60
2019-02-19T05:58:01.372Z,6.60
2019-02-19T06:03:45.853Z,6.60
2019-02-19T06:06:29.030Z,6.60
2019-02-19T06:09:19.686Z,6.60
2019-02-19T06:15:04.919Z,6.60
2019-02-19T06:18:06.698Z,6.40
2019-02-19T06:20:48.645Z,6.40
2019-02-19T06:23:30.631Z,6.50
2019-02-19T06:29:11.626Z,6.50
2019-02-19T06:35:01.795Z,6.50
2019-02-19T06:37:44.807Z,6.40
2019-02-19T06:43:32.757Z,6.20
2019-02-19T06:46:13.439Z,6.30
2019-02-19T06:49:01.388Z,6.40
2019-02-19T06:51:42.762Z,6.50
2019-02-19T06:54:35.482Z,6.60
2019-02-19T06:57:16.451Z,6.40
2019-02-19T06:59:57.718Z,6.40
2019-02-19T07:02:59.129Z,6.50
2019-02-19T07:05:43.534Z,6.50
2019-02-19T07:08:28.701Z,6.40
2019-02-19T07:11:10.208Z,6.60
2019-02-19T07:13:50.897Z,6.50
2019-02-19T07:16:32.759Z,6.00
2019-02-19T07:19:14.105Z,6.20
2019-02-19T07:21:55.350Z,6.40
2019-02-19T07:24:36.808Z,6.50
2019-02-19T07:27:18.168Z,6.60
2019-02-19T07:29:59.425Z,6.70
2019-02-19T07:32:40.975Z,6.70
2019-02-19T07:35:21.904Z,6.40
2019-02-19T07:38:01.459Z,6.10
2019-02-19T07:40:49.927Z,6.10
2019-02-19T07:43:31.418Z,6.20
2019-02-19T07:46:12.551Z,6.20
2019-02-19T07:48:53.983Z,6.10
2019-02-19T07:51:34.584Z,6.10
2019-02-19T07:54:15.682Z,6.00
2019-02-19T07:56:56.463Z,5.90
2019-02-19T07:59:37.506Z,6.00
2019-02-19T08:02:17.277Z,6.00
2019-02-19T08:04:46.831Z,6.10
2019-02-19T08:07:35.254Z,6.10
2019-02-19T08:10:16.096Z,6.10
2019-02-19T08:12:56.869Z,6.20
2019-02-19T08:15:38.383Z,6.20
2019-02-19T08:18:19.291Z,6.10
2019-02-19T08:20:59.829Z,5.90
2019-02-19T08:23:41.099Z,5.90
2019-02-19T08:26:22.459Z,6.00
2019-02-19T08:29:13.210Z,6.10
2019-02-19T08:31:47.363Z,6.20
2019-02-19T08:34:27.892Z,6.30
2019-02-19T08:37:09.175Z,6.20
2019-02-19T08:39:50.605Z,6.30
2019-02-19T08:42:31.462Z,6.40
2019-02-19T08:45:12.798Z,6.30
2019-02-19T08:47:54.219Z,6.40
2019-02-19T08:50:34.974Z,6.30
2019-02-19T08:53:15.992Z,6.50
2019-02-19T08:55:57.409Z,6.50
2019-02-19T08:58:38.858Z,6.70
2019-02-19T09:01:20.153Z,6.90
2019-02-19T09:04:00.798Z,7.10
2019-02-19T09:06:40.474Z,7.10
2019-02-19T09:09:28.858Z,6.90
2019-02-19T09:12:11.575Z,6.90
2019-02-19T09:15:00.371Z,6.90
2019-02-19T09:17:51.293Z,7.00
2019-02-19T09:20:25.382Z,7.00
2019-02-19T09:23:06.581Z,7.20
2019-02-19T09:25:48.039Z,7.10
2019-02-19T09:28:29.418Z,7.00
2019-02-19T09:31:11.268Z,6.90
2019-02-19T09:33:53.759Z,7.00
2019-02-19T09:36:36.228Z,7.00
2019-02-19T09:39:17.560Z,7.30
2019-02-19T09:41:58.899Z,7.40
2019-02-19T09:44:40.102Z,7.40
2019-02-19T09:47:20.806Z,7.30
2019-02-19T09:50:01.459Z,7.50
2019-02-19T09:52:42.667Z,7.70
2019-02-19T09:55:23.530Z,7.70
2019-02-19T09:58:04.868Z,7.80
2019-02-19T10:00:46.094Z,7.90
2019-02-19T10:03:26.883Z,8.00
2019-02-19T10:06:08.249Z,8.10
2019-02-19T10:08:48.901Z,8.20
2019-02-19T10:11:30.075Z,8.20
2019-02-19T10:14:11.554Z,8.20
2019-02-19T10:16:53.041Z,8.30
2019-02-19T10:19:34.052Z,8.30
2019-02-19T10:22:14.901Z,8.40
2019-02-19T10:24:56.104Z,8.30
2019-02-19T10:27:37.271Z,8.20
2019-02-19T10:30:18.066Z,8.30
2019-02-19T10:32:59.344Z,8.30
2019-02-19T10:38:38.481Z,8.50
2019-02-19T10:41:19.342Z,8.50
2019-02-19T10:44:00.855Z,8.60
2019-02-19T10:46:41.487Z,8.70
2019-02-19T10:49:22.092Z,8.80
2019-02-19T10:52:01.609Z,8.70
2019-02-19T10:54:51.233Z,8.50
2019-02-19T10:57:32.835Z,8.60
2019-02-19T11:00:14.707Z,8.80
2019-02-19T11:02:56.161Z,8.80
2019-02-19T11:05:37.593Z,8.80
2019-02-19T11:08:18.590Z,8.80
2019-02-19T11:10:58.086Z,8.60
2019-02-19T11:13:46.534Z,8.50
2019-02-19T11:16:27.870Z,8.30
2019-02-19T11:19:09.002Z,8.30
2019-02-19T11:21:49.792Z,8.50
2019-02-19T11:24:31.324Z,8.70
2019-02-19T11:27:12.670Z,8.80
2019-02-19T11:29:54.353Z,8.80
2019-02-19T11:32:35.068Z,8.90
2019-02-19T11:35:16.689Z,9.00
2019-02-19T11:37:57.764Z,9.20
2019-02-19T11:40:39.850Z,9.10
2019-02-19T11:43:20.506Z,9.00
2019-02-19T11:46:01.440Z,9.10
2019-02-19T11:48:43.055Z,9.20
2019-02-19T11:51:23.673Z,9.30
2019-02-19T11:54:06.180Z,9.20
2019-02-19T11:56:47.707Z,9.30
2019-02-19T11:59:28.973Z,9.30
2019-02-19T12:02:13.837Z,9.30
2019-02-19T12:04:55.379Z,9.20
2019-02-19T12:07:36.795Z,9.30
2019-02-19T12:10:18.147Z,9.20
2019-02-19T12:13:01.730Z,9.20
2019-02-19T12:15:42.627Z,9.30
2019-02-19T12:18:23.887Z,9.40
2019-02-19T12:21:04.548Z,9.40
2019-02-19T12:23:45.231Z,9.50
2019-02-19T12:26:26.508Z,9.30
2019-02-19T12:29:07.114Z,9.40
2019-02-19T12:31:48.350Z,9.20
2019-02-19T12:34:29.839Z,9.30
2019-02-19T12:37:11.313Z,9.40
2019-02-19T12:39:52.368Z,9.60
2019-02-19T12:42:35.813Z,9.80
2019-02-19T12:45:18.115Z,9.80
2019-02-19T12:47:59.446Z,9.80
2019-02-19T12:50:40.105Z,9.90
2019-02-19T12:53:21.437Z,9.80
2019-02-19T12:56:00.964Z,9.80
2019-02-19T12:58:42.452Z,9.80
2019-02-19T13:01:23.827Z,9.90
2019-02-19T13:04:04.660Z,10.00
2019-02-19T13:06:45.261Z,9.90
2019-02-19T13:09:26.581Z,9.80
2019-02-19T13:12:08.098Z,9.90
2019-02-19T13:14:49.355Z,9.80
2019-02-19T13:17:29.958Z,9.90
2019-02-19T13:20:11.168Z,9.90
2019-02-19T13:22:52.161Z,10.00
2019-02-19T13:25:35.527Z,10.00
2019-02-19T13:28:16.149Z,10.10
2019-02-19T13:30:58.453Z,10.10
2019-02-19T13:33:38.301Z,10.10
2019-02-19T13:36:47.228Z,10.10
2019-02-19T13:42:31.042Z,10.10
2019-02-19T13:45:11.902Z,10.20
2019-02-19T13:47:53.450Z,10.20
2019-02-19T13:50:34.850Z,10.20
2019-02-19T13:53:34.412Z,10.10
2019-02-19T13:56:15.155Z,10.10
2019-02-19T13:58:55.802Z,10.10
2019-02-19T14:01:37.335Z,10.20
2019-02-19T14:04:16.915Z,10.30
2019-02-19T14:06:58.322Z,10.30
2019-02-19T14:09:42.254Z,10.30
2019-02-19T14:12:23.615Z,10.30
2019-02-19T14:18:19.147Z,10.40
2019-02-19T14:21:14.806Z,10.40
2019-02-19T14:24:14.657Z,10.40
2019-02-19T14:27:14.738Z,10.40
2019-02-19T14:30:15.282Z,10.50
2019-02-19T14:33:18.094Z,10.50
2019-02-19T14:36:17.724Z,10.50
2019-02-19T14:39:17.544Z,10.40
2019-02-19T14:42:13.349Z,10.40
2019-02-19T14:45:01.662Z,10.30
2019-02-19T14:48:02.742Z,10.30
2019-02-19T14:51:05.591Z,10.30
2019-02-19T14:54:05.155Z,10.20
2019-02-19T14:57:05.483Z,10.20
2019-02-19T15:00:15.200Z,10.30
2019-02-19T15:03:00.367Z,10.20
2019-02-19T15:06:00.792Z,10.20
2019-02-19T15:09:00.978Z,10.40
2019-02-19T15:11:49.862Z,10.30
2019-02-19T15:14:49.794Z,10.30
2019-02-19T15:17:37.085Z,10.40
2019-02-19T15:20:34.785Z,10.40
2019-02-19T15:23:34.561Z,10.40
2019-02-19T15:26:34.155Z,10.40
2019-02-19T15:29:34.529Z,10.40
2019-02-19T15:32:34.434Z,10.30
2019-02-19T15:35:40.370Z,10.30
2019-02-19T15:38:40.569Z,10.30
2019-02-19T15:41:40.277Z,10.20
2019-02-19T15:44:35.644Z,10.30
2019-02-19T15:47:36.175Z,10.20
2019-02-19T15:50:36.489Z,10.20
2019-02-19T15:53:39.374Z,10.20
2019-02-19T15:56:39.588Z,10.20
2019-02-19T15:59:45.383Z,10.20
2019-02-19T16:02:45.681Z,10.20
2019-02-19T16:05:53.181Z,10.20
2019-02-19T16:09:00.559Z,10.20
2019-02-19T16:11:55.300Z,10.20
2019-02-19T16:14:50.144Z,10.20
2019-02-19T16:17:56.114Z,10.20
2019-02-19T16:20:53.693Z,10.20
2019-02-19T16:23:57.231Z,10.20
2019-02-19T16:26:57.644Z,10.30
2019-02-19T16:29:55.539Z,10.20
2019-02-19T16:32:56.070Z,10.30
2019-02-19T16:35:43.371Z,10.10
2019-02-19T16:38:46.515Z,10.10
2019-02-19T16:41:46.703Z,10.10
2019-02-19T16:44:46.564Z,10.20
2019-02-19T16:47:46.671Z,10.20
2019-02-19T16:50:47.078Z,10.00
2019-02-19T16:53:47.422Z,9.90
2019-02-19T16:56:47.856Z,9.80
2019-02-19T16:59:37.710Z,9.80
2019-02-19T17:02:45.125Z,9.80
2019-02-19T17:05:35.561Z,9.90
2019-02-19T17:08:38.205Z,9.90
2019-02-19T17:11:38.566Z,9.90
2019-02-19T17:14:38.161Z,9.80
2019-02-19T17:17:35.652Z,9.80
2019-02-19T17:20:36.102Z,9.80
2019-02-19T17:23:36.243Z,9.80
2019-02-19T17:26:38.933Z,9.80
2019-02-19T17:29:39.346Z,9.70
2019-02-19T17:32:41.462Z,9.80
2019-02-19T17:35:31.647Z,9.80
2019-02-19T17:38:34.573Z,9.80
2019-02-19T17:41:32.938Z,9.80
2019-02-19T17:44:32.643Z,9.50
2019-02-19T17:47:30.668Z,9.40
2019-02-19T17:50:21.398Z,9.50
2019-02-19T17:53:21.793Z,9.60
2019-02-19T17:56:25.067Z,9.60
2019-02-19T17:59:24.821Z,9.60
2019-02-19T18:02:27.715Z,9.60
2019-02-19T18:05:30.671Z,9.50
2019-02-19T18:08:20.006Z,9.40
2019-02-19T18:11:22.837Z,9.40
2019-02-19T18:14:19.407Z,9.40
2019-02-19T18:17:06.636Z,9.50
2019-02-19T18:19:47.455Z,9.60
2019-02-19T18:22:28.884Z,9.60
2019-02-19T18:25:10.703Z,9.60
2019-02-19T18:27:51.498Z,9.70
2019-02-19T18:30:32.478Z,9.70
2019-02-19T18:33:13.115Z,9.70
2019-02-19T18:35:54.670Z,9.70
2019-02-19T18:38:35.312Z,9.80
2019-02-19T18:41:15.948Z,9.80
2019-02-19T18:43:57.586Z,9.70
2019-02-19T18:49:46.652Z,9.70
2019-02-19T18:52:31.032Z,9.70
2019-02-19T18:55:12.463Z,9.70
2019-02-19T18:57:53.369Z,9.60
2019-02-19T19:00:34.459Z,9.50
2019-02-19T19:03:21.772Z,9.40
2019-02-19T19:06:03.274Z,9.40
2019-02-19T19:08:44.190Z,9.50
2019-02-19T19:11:26.129Z,9.60
2019-02-19T19:14:06.822Z,9.50
2019-02-19T19:16:47.854Z,9.70
2019-02-19T19:19:30.551Z,9.70
2019-02-19T19:22:13.416Z,9.70
2019-02-19T19:24:55.180Z,9.60
2019-02-19T19:27:36.182Z,9.40
2019-02-19T19:30:20.226Z,9.40
2019-02-19T19:33:05.047Z,9.30
2019-02-19T19:35:53.622Z,9.30
2019-02-19T19:38:43.636Z,9.40
2019-02-19T19:41:25.192Z,9.40
2019-02-19T19:47:26.763Z,9.10
2019-02-19T19:50:16.033Z,9.20
2019-02-19T19:53:00.914Z,9.20
2019-02-19T19:55:42.071Z,9.20
2019-02-19T19:58:23.462Z,9.20
2019-02-19T20:01:06.507Z,9.20
2019-02-19T20:06:51.191Z,9.30
2019-02-19T20:09:41.019Z,9.30
2019-02-19T20:12:22.678Z,9.20
2019-02-19T20:15:03.609Z,9.30
2019-02-19T20:17:45.196Z,9.30
2019-02-19T20:20:32.273Z,9.30
2019-02-19T20:23:13.367Z,9.40
2019-02-19T20:25:54.700Z,9.40
2019-02-19T20:31:40.050Z,9.50
2019-02-19T20:34:22.084Z,9.40
2019-02-19T20:37:10.997Z,9.40
2019-02-19T20:40:18.995Z,9.40
2019-02-19T20:43:00.757Z,9.40
2019-02-19T20:45:43.899Z,9.30
2019-02-19T20:48:26.219Z,9.20
2019-02-19T20:51:07.857Z,9.20
2019-02-19T20:53:50.757Z,9.10
2019-02-19T20:56:35.503Z,9.20
2019-02-19T20:59:17.082Z,9.30
2019-02-19T21:01:58.326Z,9.40
2019-02-19T21:04:41.986Z,9.40
2019-02-19T21:07:23.488Z,9.40
2019-02-19T21:10:04.658Z,9.20
2019-02-19T21:12:45.552Z,9.10
2019-02-19T21:15:26.415Z,9.00
2019-02-19T21:18:08.958Z,9.00
2019-02-19T21:20:51.017Z,9.10
2019-02-19T21:23:33.410Z,9.10
2019-02-19T21:26:16.127Z,9.10
2019-02-19T21:28:59.048Z,9.10
2019-02-19T21:31:40.433Z,9.00
2019-02-19T21:34:21.779Z,9.00
2019-02-19T21:37:03.263Z,9.00
2019-02-19T21:39:44.601Z,8.80
2019-02-19T21:42:29.327Z,8.80
2019-02-19T21:48:17.895Z,8.80
2019-02-19T21:50:59.575Z,8.80
2019-02-19T21:53:40.815Z,9.00
2019-02-19T21:59:30.349Z,8.90
2019-02-19T22:02:16.591Z,8.80
2019-02-19T22:04:59.447Z,8.80
2019-02-19T22:07:41.963Z,8.80
2019-02-19T22:10:23.720Z,8.80
2019-02-19T22:13:07.802Z,8.90
2019-02-19T22:15:49.456Z,8.90
2019-02-19T22:18:30.592Z,8.80
2019-02-19T22:21:17.418Z,8.70
2019-02-19T22:23:58.314Z,8.80
2019-02-19T22:26:39.001Z,8.90
2019-02-19T22:29:23.473Z,8.80
2019-02-19T22:32:05.035Z,8.80
2019-02-19T22:34:46.330Z,8.80
2019-02-19T22:37:28.941Z,8.80
2019-02-19T22:40:09.888Z,9.00
2019-02-19T22:42:50.964Z,9.00
2019-02-19T22:45:36.560Z,9.00
2019-02-19T22:48:19.715Z,9.00
2019-02-19T22:51:01.237Z,9.10
2019-02-19T22:54:02.487Z,9.10
2019-02-19T22:56:45.232Z,9.00
2019-02-19T22:59:34.097Z,8.80
2019-02-19T23:02:20.865Z,8.80
2019-02-19T23:05:02.648Z,8.90
2019-02-19T23:07:43.323Z,8.80
2019-02-19T23:11:05.841Z,8.60
2019-02-19T23:13:48.229Z,8.50
2019-02-19T23:16:47.991Z,8.60
2019-02-19T23:19:19.310Z,8.70
2019-02-19T23:22:00.692Z,8.80
2019-02-19T23:24:42.195Z,8.80
2019-02-19T23:27:23.649Z,8.90
2019-02-19T23:30:05.044Z,9.00
2019-02-19T23:32:47.295Z,8.90
2019-02-19T23:35:55.028Z,9.00
2019-02-19T23:38:37.690Z,9.00
2019-02-19T23:41:20.268Z,9.00
2019-02-19T23:44:03.081Z,9.00
2019-02-19T23:46:44.440Z,8.90
2019-02-19T23:49:25.514Z,8.80
2019-02-19T23:52:07.198Z,8.70
2019-02-19T23:54:48.347Z,8.80
2019-02-19T23:57:32.227Z,8.80
